PWSweather.com
Personal Weather Stations
Station Observations
IMAZOWIE6
WarszawaPL

WarszawaPL

Lat: 52.27957, Lon: 21.05489

Elevation: 100

Station Type: WS1080

http://stacjapogody.waw.pl/

High Low Average
Temperature 37.4°F3.0°C 25.2°F-3.8°C 31.9°F-0.1°C
Dew Point -12.4°F-24.7°C -170.3°F-112.4°C -163.1°F-108.4°C
Winds Calm Calm Calm Calm Calm NCalm N
Wind Gusts -- -- --
Humidity 11% 10% 11%
Pressure 30.19 in1022.4 mb 29.79 in1008.8 mb -
Precipitation 0.00 in0.0 mm - -
Hour Temp Dew Point Humidity Winds Wind Gusts Pressure Precip Precip Rate Daily Precip Total
12:01 AM 27.9°F-2.3°C -170.0°F-112.2°C - Calm Calm -- 30.18 in1022.0 mb 0.00 in0.0 mm 0.00 in0.0 mm 0.00 in0.0 mm
12:16 AM 27.5°F-2.5°C -170.1°F-112.3°C - Calm Calm -- 30.18 in1022.0 mb 0.00 in0.0 mm 0.00 in0.0 mm 0.00 in0.0 mm
12:31 AM 27.1°F-2.7°C -170.1°F-112.3°C - Calm Calm -- 30.19 in1022.4 mb 0.00 in0.0 mm 0.00 in0.0 mm 0.00 in0.0 mm
12:46 AM 26.8°F-2.9°C -170.1°F-112.3°C - Calm Calm -- 30.18 in1022.0 mb 0.00 in0.0 mm 0.00 in0.0 mm 0.00 in0.0 mm
01:01 AM 26.4°F-3.1°C -170.2°F-112.3°C - Calm Calm -- 30.18 in1022.0 mb 0.00 in0.0 mm 0.00 in0.0 mm 0.00 in0.0 mm
01:16 AM 25.9°F-3.4°C -170.2°F-112.3°C - Calm Calm -- 30.18 in1022.0 mb 0.00 in0.0 mm 0.00 in0.0 mm 0.00 in0.0 mm
01:31 AM 25.9°F-3.4°C -170.2°F-112.3°C - Calm Calm -- 30.17 in1021.7 mb 0.00 in0.0 mm 0.00 in0.0 mm 0.00 in0.0 mm
01:46 AM 25.7°F-3.5°C -170.2°F-112.3°C - Calm Calm -- 30.15 in1021.0 mb 0.00 in0.0 mm 0.00 in0.0 mm 0.00 in0.0 mm
02:01 AM 25.3°F-3.7°C -170.3°F-112.4°C - Calm Calm -- 30.15 in1021.0 mb 0.00 in0.0 mm 0.00 in0.0 mm 0.00 in0.0 mm
02:16 AM 25.2°F-3.8°C -170.3°F-112.4°C - Calm Calm -- 30.14 in1020.7 mb 0.00 in0.0 mm 0.00 in0.0 mm 0.00 in0.0 mm
02:31 AM 25.2°F-3.8°C -170.3°F-112.4°C - Calm Calm -- 30.14 in1020.7 mb 0.00 in0.0 mm 0.00 in0.0 mm 0.00 in0.0 mm
02:47 AM 25.5°F-3.6°C -170.2°F-112.3°C - Calm Calm -- 30.13 in1020.3 mb 0.00 in0.0 mm 0.00 in0.0 mm 0.00 in0.0 mm
03:03 AM 25.7°F-3.5°C -170.2°F-112.3°C - Calm Calm -- 30.12 in1020.0 mb 0.00 in0.0 mm 0.00 in0.0 mm 0.00 in0.0 mm
03:19 AM 25.7°F-3.5°C -170.2°F-112.3°C - Calm Calm -- 30.12 in1020.0 mb 0.00 in0.0 mm 0.00 in0.0 mm 0.00 in0.0 mm
03:35 AM 25.7°F-3.5°C -170.2°F-112.3°C - Calm Calm -- 30.10 in1019.3 mb 0.00 in0.0 mm 0.00 in0.0 mm 0.00 in0.0 mm
03:46 AM 25.9°F-3.4°C -170.2°F-112.3°C - Calm Calm -- 30.10 in1019.3 mb 0.00 in0.0 mm 0.00 in0.0 mm 0.00 in0.0 mm
04:02 AM 25.5°F-3.6°C -170.2°F-112.3°C - Calm Calm -- 30.09 in1019.0 mb 0.00 in0.0 mm 0.00 in0.0 mm 0.00 in0.0 mm
04:18 AM 25.5°F-3.6°C -170.2°F-112.3°C - Calm Calm -- 30.08 in1018.6 mb 0.00 in0.0 mm 0.00 in0.0 mm 0.00 in0.0 mm
04:34 AM 25.7°F-3.5°C -170.2°F-112.3°C - Calm Calm -- 30.07 in1018.3 mb 0.00 in0.0 mm 0.00 in0.0 mm 0.00 in0.0 mm
04:50 AM 25.9°F-3.4°C -170.2°F-112.3°C - Calm Calm -- 30.07 in1018.3 mb 0.00 in0.0 mm 0.00 in0.0 mm 0.00 in0.0 mm
05:01 AM 26.1°F-3.3°C -170.2°F-112.3°C - Calm Calm -- 30.06 in1017.9 mb 0.00 in0.0 mm 0.00 in0.0 mm 0.00 in0.0 mm
05:17 AM 26.1°F-3.3°C -170.2°F-112.3°C - Calm Calm -- 30.05 in1017.6 mb 0.00 in0.0 mm 0.00 in0.0 mm 0.00 in0.0 mm
05:33 AM 25.9°F-3.4°C -170.2°F-112.3°C - Calm Calm -- 30.04 in1017.3 mb 0.00 in0.0 mm 0.00 in0.0 mm 0.00 in0.0 mm
05:49 AM 26.1°F-3.3°C -170.2°F-112.3°C - Calm Calm -- 30.03 in1016.9 mb 0.00 in0.0 mm 0.00 in0.0 mm 0.00 in0.0 mm
06:05 AM 26.2°F-3.2°C -170.2°F-112.3°C - Calm Calm -- 30.03 in1016.9 mb 0.00 in0.0 mm 0.00 in0.0 mm 0.00 in0.0 mm
06:21 AM 26.2°F-3.2°C -170.2°F-112.3°C - Calm Calm -- 30.01 in1016.3 mb 0.00 in0.0 mm 0.00 in0.0 mm 0.00 in0.0 mm
06:31 AM 26.6°F-3.0°C -170.1°F-112.3°C - Calm Calm -- 30.01 in1016.3 mb 0.00 in0.0 mm 0.00 in0.0 mm 0.00 in0.0 mm
06:47 AM 26.8°F-2.9°C -170.1°F-112.3°C - Calm Calm -- 30.01 in1016.3 mb 0.00 in0.0 mm 0.00 in0.0 mm 0.00 in0.0 mm
07:03 AM 27.7°F-2.4°C -170.0°F-112.2°C - Calm Calm -- 30.01 in1016.3 mb 0.00 in0.0 mm 0.00 in0.0 mm 0.00 in0.0 mm
07:18 AM 28.8°F-1.8°C -169.9°F-112.2°C - Calm Calm -- 30.01 in1016.3 mb 0.00 in0.0 mm 0.00 in0.0 mm 0.00 in0.0 mm
07:33 AM 30.7°F-0.7°C -169.7°F-112.1°C - Calm Calm -- 30.02 in1016.6 mb 0.00 in0.0 mm 0.00 in0.0 mm 0.00 in0.0 mm
07:48 AM 30.4°F-0.9°C -169.8°F-112.1°C - Calm Calm -- 30.01 in1016.3 mb 0.00 in0.0 mm 0.00 in0.0 mm 0.00 in0.0 mm
08:03 AM 30.2°F-1.0°C -169.8°F-112.1°C - Calm Calm -- 30.01 in1016.3 mb 0.00 in0.0 mm 0.00 in0.0 mm 0.00 in0.0 mm
08:18 AM 30.4°F-0.9°C -169.8°F-112.1°C - Calm Calm -- 30.01 in1016.3 mb 0.00 in0.0 mm 0.00 in0.0 mm 0.00 in0.0 mm
08:33 AM 30.7°F-0.7°C -169.7°F-112.1°C - Calm Calm -- 30.01 in1016.3 mb 0.00 in0.0 mm 0.00 in0.0 mm 0.00 in0.0 mm
08:48 AM 30.9°F-0.6°C -169.7°F-112.1°C - Calm Calm -- 29.98 in1015.2 mb 0.00 in0.0 mm 0.00 in0.0 mm 0.00 in0.0 mm
09:03 AM 31.3°F-0.4°C -169.7°F-112.1°C - Calm Calm -- 29.97 in1014.9 mb 0.00 in0.0 mm 0.00 in0.0 mm 0.00 in0.0 mm
09:18 AM 31.5°F-0.3°C -169.7°F-112.1°C - Calm Calm -- 29.97 in1014.9 mb 0.00 in0.0 mm 0.00 in0.0 mm 0.00 in0.0 mm
09:33 AM 32.0°F0.0°C -169.6°F-112.0°C - Calm Calm -- 29.96 in1014.6 mb 0.00 in0.0 mm 0.00 in0.0 mm 0.00 in0.0 mm
09:48 AM 32.2°F0.1°C -169.6°F-112.0°C - Calm Calm -- 29.94 in1013.9 mb 0.00 in0.0 mm 0.00 in0.0 mm 0.00 in0.0 mm
10:03 AM 32.2°F0.1°C -169.6°F-112.0°C - Calm Calm -- 29.95 in1014.2 mb 0.00 in0.0 mm 0.00 in0.0 mm 0.00 in0.0 mm
10:18 AM 32.2°F0.1°C -169.6°F-112.0°C - Calm Calm -- 29.96 in1014.6 mb 0.00 in0.0 mm 0.00 in0.0 mm 0.00 in0.0 mm
10:33 AM 32.4°F0.2°C -169.6°F-112.0°C - Calm Calm -- 29.95 in1014.2 mb 0.00 in0.0 mm 0.00 in0.0 mm 0.00 in0.0 mm
10:48 AM 32.7°F0.4°C -169.5°F-111.9°C - Calm Calm -- 29.94 in1013.9 mb 0.01 in0.3 mm 0.05 in1.3 mm 0.01 in0.3 mm
11:03 AM 32.9°F0.5°C -169.5°F-111.9°C - Calm Calm -- 29.92 in1013.2 mb 0.01 in0.3 mm 0.00 in0.0 mm 0.01 in0.3 mm
11:18 AM 33.4°F0.8°C -169.5°F-111.9°C - Calm Calm -- 29.92 in1013.2 mb 0.00 in0.0 mm 0.00 in0.0 mm 0.01 in0.3 mm
11:33 AM 33.4°F0.8°C -169.5°F-111.9°C - Calm Calm -- 29.91 in1012.9 mb 0.00 in0.0 mm 0.00 in0.0 mm 0.01 in0.3 mm
11:48 AM 33.6°F0.9°C -169.4°F-111.9°C - Calm Calm -- 29.90 in1012.5 mb 0.00 in0.0 mm 0.00 in0.0 mm 0.01 in0.3 mm
12:03 PM 33.8°F1.0°C -169.4°F-111.9°C - Calm Calm -- 29.89 in1012.2 mb 0.00 in0.0 mm 0.00 in0.0 mm 0.01 in0.3 mm
12:18 PM 34.2°F1.2°C -169.4°F-111.9°C - Calm Calm -- 29.89 in1012.2 mb 0.00 in0.0 mm 0.00 in0.0 mm 0.01 in0.3 mm
12:33 PM 34.0°F1.1°C -169.4°F-111.9°C - Calm Calm -- 29.88 in1011.9 mb 0.00 in0.0 mm 0.00 in0.0 mm 0.01 in0.3 mm
12:48 PM 34.2°F1.2°C -169.4°F-111.9°C - Calm Calm -- 29.88 in1011.9 mb 0.00 in0.0 mm 0.00 in0.0 mm 0.01 in0.3 mm
01:03 PM 34.0°F1.1°C -169.4°F-111.9°C - Calm Calm -- 29.87 in1011.5 mb 0.00 in0.0 mm 0.00 in0.0 mm 0.01 in0.3 mm
01:18 PM 34.2°F1.2°C -169.4°F-111.9°C - Calm Calm -- 29.87 in1011.5 mb 0.00 in0.0 mm 0.00 in0.0 mm 0.01 in0.3 mm
01:33 PM 34.0°F1.1°C -169.4°F-111.9°C - Calm Calm -- 29.86 in1011.2 mb 0.00 in0.0 mm 0.00 in0.0 mm 0.01 in0.3 mm
01:48 PM 34.0°F1.1°C -169.4°F-111.9°C - Calm Calm -- 29.85 in1010.8 mb 0.00 in0.0 mm 0.00 in0.0 mm 0.01 in0.3 mm
02:03 PM 34.2°F1.2°C -169.4°F-111.9°C - Calm Calm -- 29.85 in1010.8 mb 0.00 in0.0 mm 0.00 in0.0 mm 0.01 in0.3 mm
02:18 PM 34.5°F1.4°C -169.3°F-111.8°C - Calm Calm -- 29.85 in1010.8 mb 0.00 in0.0 mm 0.00 in0.0 mm 0.01 in0.3 mm
02:33 PM 34.3°F1.3°C -169.4°F-111.9°C - Calm Calm -- 29.85 in1010.8 mb 0.00 in0.0 mm 0.00 in0.0 mm 0.01 in0.3 mm
02:48 PM 34.3°F1.3°C -169.4°F-111.9°C - Calm Calm -- 29.85 in1010.8 mb 0.01 in0.3 mm 0.05 in1.3 mm 0.02 in0.5 mm
03:03 PM 34.3°F1.3°C -169.4°F-111.9°C - Calm Calm -- 29.84 in1010.5 mb 0.01 in0.3 mm 0.00 in0.0 mm 0.02 in0.5 mm
03:18 PM 34.3°F1.3°C -169.4°F-111.9°C - Calm Calm -- 29.84 in1010.5 mb 0.00 in0.0 mm 0.00 in0.0 mm 0.02 in0.5 mm
03:33 PM 34.3°F1.3°C -169.4°F-111.9°C - Calm Calm -- 29.83 in1010.2 mb 0.00 in0.0 mm 0.00 in0.0 mm 0.02 in0.5 mm
03:48 PM 34.3°F1.3°C -169.4°F-111.9°C - Calm Calm -- 29.83 in1010.2 mb 0.00 in0.0 mm 0.00 in0.0 mm 0.02 in0.5 mm
04:03 PM 34.5°F1.4°C -169.3°F-111.8°C - Calm Calm -- 29.83 in1010.2 mb 0.00 in0.0 mm 0.00 in0.0 mm 0.02 in0.5 mm
04:18 PM 34.7°F1.5°C -169.3°F-111.8°C - Calm Calm -- 29.83 in1010.2 mb 0.00 in0.0 mm 0.00 in0.0 mm 0.02 in0.5 mm
04:33 PM 34.9°F1.6°C -169.3°F-111.8°C - Calm Calm -- 29.83 in1010.2 mb 0.00 in0.0 mm 0.00 in0.0 mm 0.02 in0.5 mm
04:48 PM 34.9°F1.6°C -169.3°F-111.8°C - Calm Calm -- 29.83 in1010.2 mb 0.00 in0.0 mm 0.00 in0.0 mm 0.02 in0.5 mm
05:03 PM 34.9°F1.6°C -169.3°F-111.8°C - Calm Calm -- 29.82 in1009.8 mb 0.00 in0.0 mm 0.00 in0.0 mm 0.02 in0.5 mm
05:18 PM 35.1°F1.7°C -169.3°F-111.8°C - Calm Calm -- 29.82 in1009.8 mb 0.00 in0.0 mm 0.00 in0.0 mm 0.02 in0.5 mm
05:33 PM 35.4°F1.9°C -169.3°F-111.8°C - Calm Calm -- 29.81 in1009.5 mb 0.00 in0.0 mm 0.00 in0.0 mm 0.02 in0.5 mm
05:48 PM 35.8°F2.1°C -169.2°F-111.8°C - Calm Calm -- 29.81 in1009.5 mb 0.00 in0.0 mm 0.00 in0.0 mm 0.02 in0.5 mm
06:03 PM 35.6°F2.0°C -169.2°F-111.8°C - Calm Calm -- 29.81 in1009.5 mb 0.00 in0.0 mm 0.00 in0.0 mm 0.02 in0.5 mm
06:18 PM 35.8°F2.1°C -169.2°F-111.8°C - Calm Calm -- 29.81 in1009.5 mb 0.00 in0.0 mm 0.00 in0.0 mm 0.02 in0.5 mm
06:33 PM 36.0°F2.2°C -169.2°F-111.8°C - Calm Calm -- 29.81 in1009.5 mb 0.00 in0.0 mm 0.00 in0.0 mm 0.02 in0.5 mm
06:48 PM 36.0°F2.2°C -169.2°F-111.8°C - Calm Calm -- 29.81 in1009.5 mb 0.00 in0.0 mm 0.00 in0.0 mm 0.02 in0.5 mm
07:03 PM 36.0°F2.2°C -169.2°F-111.8°C - Calm Calm -- 29.80 in1009.1 mb 0.00 in0.0 mm 0.00 in0.0 mm 0.02 in0.5 mm
07:18 PM 36.3°F2.4°C -169.2°F-111.8°C - Calm Calm -- 29.81 in1009.5 mb 0.00 in0.0 mm 0.00 in0.0 mm 0.02 in0.5 mm
07:33 PM 36.3°F2.4°C -169.2°F-111.8°C - Calm Calm -- 29.81 in1009.5 mb 0.00 in0.0 mm 0.00 in0.0 mm 0.02 in0.5 mm
07:48 PM 36.5°F2.5°C -169.2°F-111.8°C - Calm Calm -- 29.81 in1009.5 mb 0.00 in0.0 mm 0.00 in0.0 mm 0.02 in0.5 mm
08:03 PM 36.3°F2.4°C -169.2°F-111.8°C - Calm Calm -- 29.81 in1009.5 mb 0.00 in0.0 mm 0.00 in0.0 mm 0.02 in0.5 mm
08:18 PM 36.7°F2.6°C -169.1°F-111.7°C - Calm Calm -- 29.81 in1009.5 mb 0.00 in0.0 mm 0.00 in0.0 mm 0.02 in0.5 mm
08:33 PM 36.9°F2.7°C -169.1°F-111.7°C - Calm Calm -- 29.81 in1009.5 mb 0.00 in0.0 mm 0.00 in0.0 mm 0.02 in0.5 mm
08:48 PM 36.7°F2.6°C -169.1°F-111.7°C - Calm Calm -- 29.81 in1009.5 mb 0.01 in0.3 mm 0.05 in1.3 mm 0.04 in1.0 mm
09:03 PM 36.9°F2.7°C -169.1°F-111.7°C - Calm Calm -- 29.81 in1009.5 mb 0.01 in0.3 mm 0.00 in0.0 mm 0.04 in1.0 mm
09:18 PM 36.7°F2.6°C -169.1°F-111.7°C - Calm Calm -- 29.81 in1009.5 mb 0.01 in0.3 mm 0.00 in0.0 mm 0.04 in1.0 mm
09:33 PM 36.7°F2.6°C -169.1°F-111.7°C - Calm Calm -- 29.81 in1009.5 mb 0.01 in0.3 mm 0.00 in0.0 mm 0.04 in1.0 mm
09:48 PM 36.7°F2.6°C -169.1°F-111.7°C - Calm Calm -- 29.80 in1009.1 mb 0.01 in0.3 mm 0.00 in0.0 mm 0.04 in1.0 mm
10:03 PM 36.9°F2.7°C -169.1°F-111.7°C - Calm Calm -- 29.80 in1009.1 mb 0.01 in0.3 mm 0.00 in0.0 mm 0.04 in1.0 mm
10:18 PM 37.0°F2.8°C -169.1°F-111.7°C - Calm Calm -- 29.80 in1009.1 mb 0.00 in0.0 mm 0.00 in0.0 mm 0.04 in1.0 mm
10:33 PM 37.0°F2.8°C -169.1°F-111.7°C - Calm Calm -- 29.80 in1009.1 mb 0.00 in0.0 mm 0.00 in0.0 mm 0.04 in1.0 mm
10:48 PM 37.2°F2.9°C -169.1°F-111.7°C - Calm Calm -- 29.80 in1009.1 mb 0.00 in0.0 mm 0.00 in0.0 mm 0.04 in1.0 mm
11:03 PM 37.4°F3.0°C -14.2°F-25.7°C 10% Calm Calm -- 29.79 in1008.8 mb 0.00 in0.0 mm 0.00 in0.0 mm 0.04 in1.0 mm
11:18 PM 37.4°F3.0°C -14.2°F-25.7°C 10% Calm Calm -- 29.80 in1009.1 mb 0.00 in0.0 mm 0.00 in0.0 mm 0.04 in1.0 mm
11:33 PM 37.4°F3.0°C -12.4°F-24.7°C 11% Calm Calm -- 29.80 in1009.1 mb 0.00 in0.0 mm 0.00 in0.0 mm 0.04 in1.0 mm
11:48 PM 37.4°F3.0°C -12.4°F-24.7°C 11% Calm Calm -- 29.80 in1009.1 mb 0.00 in0.0 mm 0.00 in0.0 mm 0.04 in1.0 mm